Time;durP1;ratioP1;P1;durP2;ratioP2;P2;SDS_P1;SDS_P2;PMS_P1;PMS_P2;Temp;Humidity;BMP_temperature;BMP_pressure;BME280_temperature;BME280_humidity;BME280_pressure;Samples;Min_cycle;Max_cycle;Signal;HPM_P1;HPM_P2
2022/09/29 00:00:50;;;;;;;6.37;5.60;;;10.50;99.90;;;;;;5055887;28;20204;-75
2022/09/29 00:03:18;;;;;;;6.57;5.90;;;10.50;99.90;;;;;;5072551;28;20589;-75
2022/09/29 00:05:52;;;;;;;6.27;5.40;;;10.40;99.90;;;;;;5052344;28;20197;-73
2022/09/29 00:08:20;;;;;;;6.07;5.47;;;10.40;99.90;;;;;;5048955;28;20205;-75
2022/09/29 00:10:47;;;;;;;8.13;5.97;;;10.40;99.90;;;;;;5049185;28;20677;-74
2022/09/29 00:13:15;;;;;;;7.53;5.67;;;10.40;99.90;;;;;;5051884;28;20202;-74
2022/09/29 00:15:43;;;;;;;8.30;6.10;;;10.40;99.90;;;;;;5052119;28;20227;-74
2022/09/29 00:18:10;;;;;;;6.93;5.80;;;10.40;99.90;;;;;;5055487;28;20209;-74
2022/09/29 00:20:37;;;;;;;7.30;5.90;;;10.40;99.90;;;;;;5054030;28;20210;-75
2022/09/29 00:23:04;;;;;;;8.00;5.83;;;10.40;99.90;;;;;;5055103;28;20567;-74
2022/09/29 00:25:31;;;;;;;7.70;5.50;;;10.40;99.90;;;;;;5055491;28;20687;-74
2022/09/29 00:27:58;;;;;;;7.27;5.80;;;10.40;99.90;;;;;;5055393;28;20206;-75
2022/09/29 00:30:25;;;;;;;6.43;5.63;;;10.30;99.90;;;;;;5054662;28;20203;-74
2022/09/29 00:32:53;;;;;;;9.13;6.10;;;10.40;99.90;;;;;;5055294;28;20300;-74
2022/09/29 00:35:20;;;;;;;6.07;5.47;;;10.30;99.90;;;;;;5055758;28;20245;-74
2022/09/29 00:37:47;;;;;;;7.53;5.90;;;10.30;99.90;;;;;;5055343;28;20201;-75
2022/09/29 00:40:14;;;;;;;6.10;5.50;;;10.30;99.90;;;;;;5055533;28;20248;-74
2022/09/29 00:42:41;;;;;;;5.97;5.37;;;10.30;99.90;;;;;;5054670;28;20216;-74
2022/09/29 00:45:20;;;;;;;6.57;5.83;;;10.30;99.90;;;;;;5055703;28;20209;-74
2022/09/29 00:47:56;;;;;;;6.13;5.50;;;10.30;99.90;;;;;;5055542;28;20276;-74
2022/09/29 00:50:31;;;;;;;6.57;5.57;;;10.30;99.90;;;;;;5055074;28;20194;-75
2022/09/29 00:53:02;;;;;;;6.73;5.73;;;10.30;99.90;;;;;;5055212;28;20194;-74
2022/09/29 00:55:35;;;;;;;6.53;5.27;;;10.20;99.90;;;;;;5054449;28;20740;-74
2022/09/29 00:58:05;;;;;;;5.70;4.77;;;10.20;99.90;;;;;;5053906;28;20703;-75
2022/09/29 01:00:32;;;;;;;6.37;5.23;;;10.10;99.90;;;;;;5050667;28;20260;-75
2022/09/29 01:03:06;;;;;;;8.40;4.87;;;10.10;99.90;;;;;;5054962;28;20224;-75
2022/09/29 01:05:37;;;;;;;5.60;4.47;;;10.10;99.90;;;;;;5055559;28;20190;-74
2022/09/29 01:08:11;;;;;;;8.13;4.60;;;10.00;99.90;;;;;;5055030;28;20224;-75
2022/09/29 01:10:39;;;;;;;7.00;4.80;;;9.90;99.90;;;;;;5055665;28;20204;-74
2022/09/29 01:13:06;;;;;;;6.10;4.70;;;9.80;99.90;;;;;;5053881;28;20220;-75
2022/09/29 01:15:33;;;;;;;4.93;4.43;;;9.70;99.90;;;;;;5055184;28;20212;-75
2022/09/29 01:18:01;;;;;;;4.90;4.37;;;9.70;99.90;;;;;;5055131;28;20300;-74
2022/09/29 01:20:34;;;;;;;4.53;4.13;;;9.60;99.90;;;;;;5054951;28;20206;-75
2022/09/29 01:23:37;;;;;;;4.83;4.37;;;9.50;99.90;;;;;;5054599;28;20209;-74
2022/09/29 01:26:29;;;;;;;5.63;4.77;;;9.50;99.90;;;;;;5054174;28;20207;-75
2022/09/29 01:29:42;;;;;;;5.40;4.70;;;9.40;99.90;;;;;;5054155;28;20189;-74
2022/09/29 01:32:19;;;;;;;5.83;5.03;;;9.30;99.90;;;;;;5053326;28;20542;-74
2022/09/29 01:34:55;;;;;;;5.33;4.73;;;9.30;99.90;;;;;;5051961;28;20233;-74
2022/09/29 01:37:35;;;;;;;5.50;5.00;;;9.20;99.90;;;;;;5055065;28;20205;-75
2022/09/29 01:40:08;;;;;;;5.70;5.00;;;9.20;99.90;;;;;;5054700;28;20201;-75
2022/09/29 01:42:40;;;;;;;5.80;5.30;;;9.20;99.90;;;;;;5054554;28;20200;-74
2022/09/29 01:45:15;;;;;;;6.03;5.10;;;9.10;99.90;;;;;;5054731;28;20643;-75
2022/09/29 01:47:48;;;;;;;6.77;5.73;;;9.10;99.90;;;;;;5053505;28;20212;-74
2022/09/29 01:50:18;;;;;;;6.10;5.40;;;9.10;99.90;;;;;;5054878;28;20225;-74
2022/09/29 01:52:48;;;;;;;5.80;5.03;;;9.10;99.90;;;;;;5053817;28;20202;-73
2022/09/29 01:55:18;;;;;;;6.33;5.23;;;9.10;99.90;;;;;;5053765;28;20217;-74
2022/09/29 01:57:50;;;;;;;6.57;5.53;;;9.10;99.90;;;;;;5053461;28;20209;-74
2022/09/29 02:00:18;;;;;;;9.23;6.70;;;9.20;99.90;;;;;;5053975;28;20200;-74
2022/09/29 02:02:50;;;;;;;9.03;6.70;;;9.20;99.90;;;;;;5052308;28;20570;-74
2022/09/29 02:05:21;;;;;;;11.33;8.00;;;9.20;99.90;;;;;;5054138;28;20585;-74
2022/09/29 02:07:49;;;;;;;10.50;7.33;;;9.20;99.90;;;;;;5053759;28;20186;-74
2022/09/29 02:10:21;;;;;;;8.63;6.90;;;9.10;99.90;;;;;;5051501;28;20225;-74
2022/09/29 02:12:52;;;;;;;11.33;7.57;;;9.10;99.90;;;;;;5053398;28;20221;-74
2022/09/29 02:15:25;;;;;;;10.33;8.23;;;9.10;99.90;;;;;;5053692;28;20229;-74
2022/09/29 02:17:57;;;;;;;9.97;7.77;;;9.10;99.90;;;;;;5052870;28;20272;-74
2022/09/29 02:20:24;;;;;;;10.07;7.83;;;9.10;99.90;;;;;;5052190;28;20205;-74
2022/09/29 02:22:51;;;;;;;12.97;8.37;;;9.10;99.90;;;;;;5053448;28;20209;-73
2022/09/29 02:25:19;;;;;;;14.33;9.43;;;9.10;99.90;;;;;;5053385;28;20205;-73
2022/09/29 02:27:47;;;;;;;12.87;8.07;;;9.10;99.90;;;;;;5053088;28;20655;-75
2022/09/29 02:30:14;;;;;;;12.03;8.33;;;9.10;99.90;;;;;;5053013;28;20574;-74
2022/09/29 02:32:41;;;;;;;12.23;8.67;;;9.10;99.90;;;;;;5051301;28;20570;-74
2022/09/29 02:35:13;;;;;;;11.97;8.17;;;9.10;99.90;;;;;;5051887;28;20237;-74
2022/09/29 02:37:53;;;;;;;11.43;8.13;;;9.10;99.90;;;;;;5052759;28;20653;-76
2022/09/29 02:40:29;;;;;;;10.97;8.30;;;9.10;99.90;;;;;;5052360;28;20284;-73
2022/09/29 02:43:14;;;;;;;12.30;8.80;;;9.10;99.90;;;;;;5052436;28;20189;-74
2022/09/29 02:45:53;;;;;;;10.97;8.20;;;9.20;99.90;;;;;;5050629;28;20671;-74
2022/09/29 02:48:50;;;;;;;8.23;7.00;;;9.20;99.90;;;;;;5052855;28;20185;-74
2022/09/29 02:51:23;;;;;;;10.90;7.87;;;9.20;99.90;;;;;;5049790;28;20209;-74
2022/09/29 02:54:06;;;;;;;10.13;8.23;;;9.30;99.90;;;;;;5052498;28;20193;-74
2022/09/29 02:56:41;;;;;;;9.73;7.10;;;9.30;99.90;;;;;;5052625;28;20209;-74
2022/09/29 02:59:13;;;;;;;8.47;6.90;;;9.30;99.90;;;;;;5051040;28;20189;-73
2022/09/29 03:01:49;;;;;;;8.30;6.13;;;9.30;99.90;;;;;;5051849;28;20189;-73
2022/09/29 03:04:16;;;;;;;8.80;6.53;;;9.40;99.90;;;;;;5052757;28;20193;-74
2022/09/29 03:06:44;;;;;;;8.00;6.50;;;9.40;99.90;;;;;;5052511;28;20198;-74
2022/09/29 03:09:12;;;;;;;8.30;6.83;;;9.50;99.90;;;;;;5051981;28;20216;-72
2022/09/29 03:11:38;;;;;;;10.20;6.43;;;9.50;99.90;;;;;;5052196;28;20201;-73
2022/09/29 03:14:06;;;;;;;9.40;6.50;;;9.50;99.90;;;;;;5051394;28;20205;-74
2022/09/29 03:16:33;;;;;;;8.27;6.27;;;9.50;99.90;;;;;;5052358;28;20640;-74
2022/09/29 03:19:00;;;;;;;13.23;7.27;;;9.50;99.90;;;;;;5052767;28;20213;-74
2022/09/29 03:21:28;;;;;;;8.47;6.30;;;9.50;99.90;;;;;;5051782;28;20209;-73
2022/09/29 03:23:56;;;;;;;7.90;5.93;;;9.50;99.90;;;;;;5050941;28;20259;-74
2022/09/29 03:26:23;;;;;;;7.50;5.80;;;9.50;99.90;;;;;;5052413;28;20197;-74
2022/09/29 03:28:50;;;;;;;24.90;16.90;;;9.50;99.90;;;;;;5053520;28;20213;-75
2022/09/29 03:31:17;;;;;;;16.53;11.67;;;9.50;99.90;;;;;;5052613;28;20210;-73
2022/09/29 03:33:44;;;;;;;12.10;9.53;;;9.60;99.90;;;;;;5052008;28;20229;-74
2022/09/29 03:36:11;;;;;;;12.33;8.13;;;9.50;99.90;;;;;;5050637;28;20205;-75
2022/09/29 03:38:39;;;;;;;10.53;7.97;;;9.50;99.90;;;;;;5032567;28;20232;-74
2022/09/29 03:41:07;;;;;;;12.27;8.10;;;9.50;99.90;;;;;;5032712;28;20213;-74
2022/09/29 03:43:34;;;;;;;12.97;8.93;;;9.50;99.90;;;;;;5032526;28;20220;-74
2022/09/29 03:46:01;;;;;;;15.03;8.80;;;9.60;99.90;;;;;;5032531;28;20206;-74
2022/09/29 03:48:32;;;;;;;11.97;8.30;;;9.60;99.90;;;;;;5032761;28;20206;-74
2022/09/29 03:50:59;;;;;;;16.70;10.30;;;9.60;99.90;;;;;;5041488;28;20277;-72
2022/09/29 03:53:26;;;;;;;14.53;10.30;;;9.60;99.90;;;;;;5055021;28;20212;-73
2022/09/29 03:55:53;;;;;;;13.80;8.60;;;9.60;99.90;;;;;;5056234;28;20205;-74
2022/09/29 03:58:21;;;;;;;12.13;8.30;;;9.70;99.90;;;;;;5056179;28;20229;-73
2022/09/29 04:00:48;;;;;;;15.07;9.07;;;9.60;99.90;;;;;;5056105;28;20208;-73
2022/09/29 04:03:15;;;;;;;17.93;10.40;;;9.70;99.90;;;;;;5056028;28;20572;-74
2022/09/29 04:05:42;;;;;;;13.77;9.73;;;9.70;99.90;;;;;;5054823;28;20224;-76
2022/09/29 04:08:09;;;;;;;14.67;9.90;;;9.80;99.90;;;;;;5053114;28;20197;-74
2022/09/29 04:10:36;;;;;;;14.10;9.47;;;9.80;99.90;;;;;;5055996;28;20202;-73
2022/09/29 04:13:04;;;;;;;16.03;9.23;;;9.80;99.90;;;;;;5056082;28;20209;-74
2022/09/29 04:15:33;;;;;;;16.70;9.00;;;9.80;99.90;;;;;;5054983;28;20229;-73
2022/09/29 04:17:59;;;;;;;11.63;7.47;;;9.80;99.90;;;;;;5055103;28;20594;-71
2022/09/29 04:20:27;;;;;;;12.83;7.83;;;9.80;99.90;;;;;;5054557;28;20228;-75
2022/09/29 04:22:54;;;;;;;13.30;8.90;;;9.80;99.90;;;;;;5055429;28;20216;-76
2022/09/29 04:25:21;;;;;;;12.53;9.03;;;9.80;99.90;;;;;;5055632;28;20559;-73
2022/09/29 04:27:48;;;;;;;12.47;8.47;;;9.70;99.90;;;;;;5053706;28;20224;-74
2022/09/29 04:30:15;;;;;;;11.77;7.90;;;9.80;99.90;;;;;;5055071;28;20216;-75
2022/09/29 04:32:43;;;;;;;10.70;8.13;;;9.70;99.90;;;;;;5055345;28;20209;-76
2022/09/29 04:35:10;;;;;;;11.90;7.77;;;9.80;99.90;;;;;;5055366;28;20275;-74
2022/09/29 04:37:37;;;;;;;11.10;7.97;;;9.80;99.90;;;;;;5054837;28;20228;-75
2022/09/29 04:40:05;;;;;;;13.97;8.93;;;9.80;99.90;;;;;;5054574;28;20724;-71
2022/09/29 04:42:31;;;;;;;12.30;8.57;;;9.90;99.90;;;;;;5047600;28;20665;-71
2022/09/29 04:44:58;;;;;;;14.87;9.67;;;9.90;99.90;;;;;;5051533;28;20233;-69
2022/09/29 04:47:25;;;;;;;12.53;9.10;;;9.90;99.90;;;;;;5053683;28;20194;-68
2022/09/29 04:49:53;;;;;;;11.63;8.20;;;10.00;99.90;;;;;;5053677;28;20209;-70
2022/09/29 04:52:20;;;;;;;13.93;9.23;;;10.00;99.90;;;;;;5050915;28;20206;-70
2022/09/29 04:54:47;;;;;;;13.10;9.13;;;10.00;99.90;;;;;;5053711;28;20232;-70
2022/09/29 04:57:14;;;;;;;12.83;8.67;;;10.10;99.90;;;;;;5054013;28;20232;-69
2022/09/29 04:59:40;;;;;;;12.63;8.50;;;10.10;99.90;;;;;;5052415;28;20205;-71
2022/09/29 05:02:07;;;;;;;9.37;7.43;;;10.20;99.90;;;;;;5052519;28;20297;-70
2022/09/29 05:04:34;;;;;;;13.50;8.17;;;10.20;99.90;;;;;;5053477;28;20707;-69
2022/09/29 05:07:03;;;;;;;14.20;8.40;;;10.20;99.90;;;;;;5053625;28;20210;-71
2022/09/29 05:09:29;;;;;;;13.50;8.67;;;10.30;99.90;;;;;;5051346;28;20208;-72
2022/09/29 05:11:56;;;;;;;12.03;8.53;;;10.30;99.90;;;;;;5053756;28;20206;-71
2022/09/29 05:14:23;;;;;;;11.33;7.60;;;10.40;99.90;;;;;;5053767;28;20206;-71
2022/09/29 05:16:50;;;;;;;10.33;8.27;;;10.40;99.90;;;;;;5054179;28;20205;-70
2022/09/29 05:19:16;;;;;;;11.10;8.13;;;10.50;99.90;;;;;;5053840;28;20207;-71
2022/09/29 05:21:43;;;;;;;11.90;8.17;;;10.60;99.90;;;;;;5052576;28;20210;-71
2022/09/29 05:24:12;;;;;;;13.40;8.60;;;10.60;99.90;;;;;;5053511;28;20211;-71
2022/09/29 05:26:39;;;;;;;13.03;8.70;;;10.70;99.90;;;;;;5053635;28;20563;-72
2022/09/29 05:29:06;;;;;;;13.17;8.57;;;10.80;99.90;;;;;;5053436;28;20222;-72
2022/09/29 05:31:33;;;;;;;12.20;8.80;;;10.80;99.90;;;;;;5052571;28;20240;-71
2022/09/29 05:34:00;;;;;;;11.60;7.97;;;10.90;99.90;;;;;;5052591;28;20751;-72
2022/09/29 05:36:26;;;;;;;12.07;7.30;;;11.00;99.90;;;;;;5053052;28;20213;-73
2022/09/29 05:38:54;;;;;;;11.07;7.60;;;11.10;99.90;;;;;;5053256;28;20221;-71
2022/09/29 05:41:22;;;;;;;8.97;6.73;;;11.10;99.90;;;;;;5053375;28;20205;-71
2022/09/29 05:43:52;;;;;;;10.70;7.23;;;11.20;99.90;;;;;;5047619;28;20714;-72
2022/09/29 05:46:19;;;;;;;15.97;8.70;;;11.20;99.90;;;;;;5052729;28;20213;-72
2022/09/29 05:48:46;;;;;;;14.80;7.40;;;11.30;99.90;;;;;;5053219;28;20209;-72
2022/09/29 05:51:16;;;;;;;12.63;7.77;;;11.30;99.90;;;;;;5053338;28;20205;-72
2022/09/29 05:53:43;;;;;;;13.30;7.40;;;11.30;99.90;;;;;;5052151;28;20210;-72
2022/09/29 05:56:12;;;;;;;13.83;8.30;;;11.30;99.90;;;;;;5051260;28;20537;-70
2022/09/29 05:58:40;;;;;;;12.10;7.50;;;11.40;99.90;;;;;;5052936;28;20255;-70
2022/09/29 06:01:08;;;;;;;18.67;8.40;;;11.40;99.90;;;;;;5052833;28;20205;-71
2022/09/29 06:03:36;;;;;;;15.53;8.50;;;11.40;99.90;;;;;;5050460;28;20213;-72
2022/09/29 06:06:07;;;;;;;14.47;8.43;;;11.50;99.90;;;;;;5052624;28;20255;-72
2022/09/29 06:08:35;;;;;;;15.70;8.70;;;11.50;99.90;;;;;;5053165;28;20202;-72
2022/09/29 06:11:06;;;;;;;17.33;8.97;;;11.50;99.90;;;;;;5052945;28;20202;-72
2022/09/29 06:13:33;;;;;;;19.03;9.20;;;11.60;99.90;;;;;;5052077;28;20201;-71
2022/09/29 06:16:02;;;;;;;16.60;10.27;;;11.60;99.90;;;;;;5052522;28;20629;-72
2022/09/29 06:18:29;;;;;;;19.67;9.60;;;11.60;99.90;;;;;;5052779;28;20227;-73
2022/09/29 06:21:01;;;;;;;17.23;9.40;;;11.70;99.90;;;;;;5053689;28;20208;-70
2022/09/29 06:23:28;;;;;;;12.23;7.70;;;11.70;99.90;;;;;;5050686;28;20198;-72
2022/09/29 06:25:56;;;;;;;14.83;9.00;;;11.70;99.90;;;;;;5052638;28;20236;-71
2022/09/29 06:28:23;;;;;;;12.80;7.97;;;11.80;99.90;;;;;;5052525;28;20201;-71
2022/09/29 06:30:50;;;;;;;11.80;7.90;;;11.90;99.90;;;;;;5052784;28;20205;-71
2022/09/29 06:33:19;;;;;;;11.33;7.40;;;11.90;99.90;;;;;;5050793;28;20206;-72
2022/09/29 06:38:31;;;;;;;12.97;8.67;;;12.10;99.90;;;;;;5052188;28;20221;-71
2022/09/29 06:40:58;;;;;;;13.57;8.33;;;12.10;99.90;;;;;;5050854;28;20201;-74
2022/09/29 06:43:24;;;;;;;16.50;9.17;;;12.20;99.90;;;;;;5052415;28;20201;-72
2022/09/29 06:45:51;;;;;;;13.50;8.73;;;12.30;99.90;;;;;;5051176;28;20212;-75
2022/09/29 06:48:19;;;;;;;12.97;8.07;;;12.50;99.90;;;;;;5050195;28;20209;-73
2022/09/29 06:50:47;;;;;;;11.60;7.80;;;12.60;99.90;;;;;;5052284;28;20201;-72
2022/09/29 06:53:13;;;;;;;10.83;7.57;;;12.70;99.90;;;;;;5051919;28;20213;-72
2022/09/29 06:55:40;;;;;;;9.00;6.73;;;12.80;99.90;;;;;;5051932;28;20832;-72
2022/09/29 06:58:07;;;;;;;7.73;6.33;;;12.90;99.90;;;;;;5050555;28;20221;-73
2022/09/29 07:00:35;;;;;;;9.50;6.50;;;12.90;99.90;;;;;;5032434;28;20245;-72
2022/09/29 07:03:02;;;;;;;10.07;6.60;;;13.00;99.90;;;;;;5032483;28;20642;-71
2022/09/29 07:05:30;;;;;;;9.63;6.80;;;13.10;99.90;;;;;;5032572;28;20213;-71
2022/09/29 14:05:39;;;;;;;6.20;2.93;;;17.80;99.90;;;;;;5046200;28;20587;-75
2022/09/29 14:08:17;;;;;;;5.27;3.13;;;18.40;99.90;;;;;;5046704;28;20202;-73
2022/09/29 14:10:48;;;;;;;6.07;3.00;;;18.50;99.90;;;;;;5046243;28;20196;-74
2022/09/29 14:13:22;;;;;;;9.90;3.53;;;18.50;99.90;;;;;;5046587;28;20210;-74
2022/09/29 14:15:58;;;;;;;8.03;2.80;;;18.50;99.90;;;;;;5046463;28;20194;-74
2022/09/29 14:18:31;;;;;;;3.53;2.50;;;18.50;99.90;;;;;;5046833;28;20194;-74
2022/09/29 14:21:02;;;;;;;4.23;2.47;;;18.40;99.90;;;;;;5045643;28;20194;-75
2022/09/29 14:23:50;;;;;;;4.37;2.40;;;18.40;99.90;;;;;;5045942;28;20194;-73
2022/09/29 14:26:46;;;;;;;9.73;2.63;;;18.40;99.90;;;;;;5047621;28;20633;-75
2022/09/29 14:29:17;;;;;;;6.30;2.67;;;18.40;99.90;;;;;;5045526;27;20207;-73
2022/09/29 14:31:48;;;;;;;4.40;3.23;;;18.40;99.90;;;;;;5064109;27;20201;-73
2022/09/29 14:34:17;;;;;;;5.97;3.83;;;18.40;99.90;;;;;;5109445;27;20218;-75
2022/09/29 14:36:46;;;;;;;4.60;3.13;;;18.30;99.90;;;;;;5032690;28;20206;-73
2022/09/29 14:39:15;;;;;;;5.77;2.70;;;18.30;99.90;;;;;;5053810;27;20205;-74
2022/09/29 14:41:44;;;;;;;10.00;3.73;;;18.30;99.90;;;;;;5045636;28;20212;-74
2022/09/29 14:44:13;;;;;;;4.30;2.93;;;18.20;99.90;;;;;;5029895;28;20204;-74
2022/09/29 14:53:01;;;;;;;10.97;3.90;;;18.20;99.90;;;;;;5044084;28;20217;-75
2022/09/29 14:55:39;;;;;;;4.93;3.60;;;18.10;99.90;;;;;;5025397;28;20197;-75
2022/09/29 14:58:24;;;;;;;8.33;3.80;;;18.10;99.90;;;;;;5025951;28;20240;-73
2022/09/29 15:01:02;;;;;;;7.20;4.00;;;18.00;99.90;;;;;;5029867;28;20225;-75
2022/09/29 15:03:33;;;;;;;8.17;4.00;;;17.90;99.90;;;;;;5043112;28;20323;-73
2022/09/29 15:06:06;;;;;;;5.53;3.53;;;17.90;99.90;;;;;;5013198;28;20398;-75
2022/09/29 15:08:36;;;;;;;7.27;3.53;;;17.90;99.90;;;;;;5031620;28;20571;-74
2022/09/29 15:11:06;;;;;;;7.83;3.60;;;17.80;99.90;;;;;;5033066;28;20201;-74
2022/09/29 15:13:33;;;;;;;4.87;3.20;;;17.80;99.90;;;;;;5032068;28;20232;-76
2022/09/29 15:16:04;;;;;;;6.17;3.20;;;17.80;99.90;;;;;;5014091;28;20205;-74
2022/09/29 15:19:03;;;;;;;12.43;6.23;;;17.80;99.90;;;;;;5027342;28;20571;-74
2022/09/29 15:21:38;;;;;;;5.00;3.70;;;17.70;99.90;;;;;;5031987;28;20200;-73
2022/09/29 15:24:19;;;;;;;8.17;4.40;;;17.70;99.90;;;;;;5029574;28;20205;-74
2022/09/29 15:26:46;;;;;;;9.73;3.80;;;17.60;99.90;;;;;;5010216;28;20244;-73
2022/09/29 15:29:16;;;;;;;7.17;4.20;;;17.50;99.90;;;;;;5012828;28;20590;-73
2022/09/29 15:31:45;;;;;;;10.37;3.97;;;17.50;99.90;;;;;;5012130;28;20209;-73
2022/09/29 15:34:17;;;;;;;6.20;3.77;;;17.40;99.90;;;;;;5012512;28;20228;-73
2022/09/29 15:36:48;;;;;;;6.77;3.73;;;17.30;99.90;;;;;;5012169;28;20568;-72
2022/09/29 15:39:45;;;;;;;6.07;3.90;;;17.30;99.90;;;;;;5012542;28;20193;-72
2022/09/29 15:42:19;;;;;;;6.20;4.13;;;17.30;99.90;;;;;;5012716;28;20760;-73
2022/09/29 15:44:52;;;;;;;7.63;4.13;;;17.20;99.90;;;;;;5011536;28;20194;-74
2022/09/29 15:47:22;;;;;;;8.33;4.03;;;17.20;99.90;;;;;;5012085;28;20549;-74
2022/09/29 15:49:51;;;;;;;6.07;4.17;;;17.10;99.90;;;;;;5022636;28;20566;-74
2022/09/29 15:52:22;;;;;;;5.03;4.00;;;17.00;99.90;;;;;;5031628;28;20537;-73
2022/09/29 15:54:54;;;;;;;8.33;4.70;;;17.00;99.90;;;;;;5030976;28;20263;-73
2022/09/29 15:57:45;;;;;;;7.40;4.27;;;16.90;99.90;;;;;;5031825;28;20200;-74
2022/09/29 16:00:53;;;;;;;9.00;4.40;;;16.80;99.90;;;;;;5031657;28;20289;-72
2022/09/29 16:03:29;;;;;;;8.50;4.63;;;16.70;99.90;;;;;;5030997;28;20252;-74
2022/09/29 16:06:03;;;;;;;6.67;4.17;;;16.60;99.90;;;;;;5031696;28;20638;-73
2022/09/29 16:08:34;;;;;;;6.00;4.23;;;16.60;99.90;;;;;;5031582;28;20196;-74
2022/09/29 16:11:06;;;;;;;11.10;5.10;;;16.60;99.90;;;;;;5031672;28;20192;-73
2022/09/29 16:13:38;;;;;;;8.27;4.83;;;16.50;99.90;;;;;;5031224;28;20579;-72
2022/09/29 16:16:07;;;;;;;10.30;5.47;;;16.40;99.90;;;;;;5030731;28;20199;-73
2022/09/29 16:18:40;;;;;;;7.17;4.50;;;16.40;99.90;;;;;;5031601;28;20203;-75
2022/09/29 16:21:10;;;;;;;7.00;4.50;;;16.30;99.90;;;;;;5032070;28;20228;-74
2022/09/29 16:23:41;;;;;;;11.57;5.20;;;16.30;99.90;;;;;;5031558;28;20207;-74
2022/09/29 16:26:17;;;;;;;9.50;5.20;;;16.20;99.90;;;;;;5031748;28;20198;-75
2022/09/29 16:29:06;;;;;;;9.93;5.80;;;16.20;99.90;;;;;;5031266;28;20187;-76
2022/09/29 16:31:34;;;;;;;9.63;5.60;;;16.10;99.90;;;;;;5021058;28;20204;-73
2022/09/29 16:34:01;;;;;;;10.60;5.63;;;16.10;99.90;;;;;;5022847;28;20222;-75
2022/09/29 16:36:33;;;;;;;12.10;5.67;;;16.00;99.90;;;;;;5021861;28;20218;-73
2022/09/29 16:39:01;;;;;;;11.13;6.10;;;16.00;99.90;;;;;;5030640;28;20257;-76
2022/09/29 16:41:34;;;;;;;13.83;6.10;;;16.00;99.90;;;;;;5011809;28;20203;-73
2022/09/29 16:44:07;;;;;;;12.43;6.40;;;15.90;99.90;;;;;;5020437;28;20470;-74
2022/09/29 16:46:35;;;;;;;11.67;5.47;;;15.90;99.90;;;;;;5021357;28;20195;-73
2022/09/29 16:49:02;;;;;;;9.10;5.40;;;15.80;99.90;;;;;;5043143;28;20285;-74
2022/09/29 16:51:30;;;;;;;11.40;4.90;;;15.90;99.90;;;;;;5032077;28;20728;-73
2022/09/29 16:53:59;;;;;;;8.40;5.10;;;15.80;99.90;;;;;;5031164;28;20716;-76
2022/09/29 16:56:31;;;;;;;8.30;5.33;;;15.80;99.90;;;;;;5017128;28;20229;-74
2022/09/29 16:59:10;;;;;;;8.20;5.13;;;15.80;99.90;;;;;;5010468;28;20296;-74
2022/09/29 17:01:37;;;;;;;8.77;5.80;;;15.70;99.90;;;;;;5010527;28;20597;-71
2022/09/29 17:04:03;;;;;;;10.70;5.17;;;15.70;99.90;;;;;;5013837;28;20237;-72
2022/09/29 17:06:30;;;;;;;9.73;5.67;;;15.60;99.90;;;;;;5010530;28;20213;-71
2022/09/29 17:08:58;;;;;;;12.60;6.30;;;15.60;99.90;;;;;;5009833;28;20217;-72
2022/09/29 17:11:26;;;;;;;7.60;5.57;;;15.60;99.90;;;;;;5018741;28;20208;-71
2022/09/29 17:13:56;;;;;;;10.90;6.63;;;15.60;99.90;;;;;;5013441;28;20228;-73
2022/09/29 17:16:23;;;;;;;9.60;6.67;;;15.60;99.90;;;;;;5027125;28;20594;-73
2022/09/29 17:18:51;;;;;;;15.87;7.23;;;15.60;99.90;;;;;;5008897;28;20319;-73
2022/09/29 17:21:19;;;;;;;12.47;7.47;;;15.50;99.90;;;;;;5010470;28;20239;-73
2022/09/29 17:23:46;;;;;;;11.77;7.57;;;15.50;99.90;;;;;;5016816;28;20580;-73
2022/09/29 17:29:05;;;;;;;15.43;7.97;;;15.50;99.90;;;;;;5008730;28;20218;-71
2022/09/29 17:31:32;;;;;;;12.07;8.60;;;15.50;99.90;;;;;;5010006;28;20593;-74
2022/09/29 17:33:58;;;;;;;14.57;8.13;;;15.50;99.90;;;;;;5010285;28;20233;-73
2022/09/29 17:36:26;;;;;;;12.43;8.17;;;15.50;99.90;;;;;;5021248;28;20655;-72
2022/09/29 17:38:53;;;;;;;11.93;8.23;;;15.50;99.90;;;;;;5016296;28;20522;-74
2022/09/29 17:41:20;;;;;;;12.63;7.90;;;15.50;99.90;;;;;;5024673;28;20266;-71
2022/09/29 17:43:46;;;;;;;17.37;8.60;;;15.50;99.90;;;;;;5016155;28;20217;-73
2022/09/29 17:46:16;;;;;;;12.57;8.70;;;15.50;99.90;;;;;;5014624;28;20217;-71
2022/09/29 17:48:43;;;;;;;11.40;8.33;;;15.40;99.90;;;;;;5018644;28;20214;-72
2022/09/29 17:51:12;;;;;;;14.70;8.70;;;15.40;99.90;;;;;;5029736;28;20202;-72
2022/09/29 17:53:40;;;;;;;19.67;13.13;;;15.40;99.90;;;;;;5030250;28;20213;-73
2022/09/29 17:56:18;;;;;;;14.37;8.53;;;15.40;99.90;;;;;;5028741;28;20603;-73
2022/09/29 17:58:45;;;;;;;15.67;8.17;;;15.40;99.90;;;;;;5009038;28;20660;-71
2022/09/29 18:01:12;;;;;;;13.30;8.17;;;15.30;99.90;;;;;;5045678;28;20199;-71
2022/09/29 18:03:41;;;;;;;12.80;7.97;;;15.30;99.90;;;;;;5068697;27;20243;-72
2022/09/29 18:06:07;;;;;;;12.57;8.47;;;15.30;99.90;;;;;;5029718;28;20731;-70
2022/09/29 18:08:34;;;;;;;12.30;8.23;;;15.30;99.90;;;;;;5043547;28;20199;-70
2022/09/29 18:11:02;;;;;;;11.37;8.27;;;15.30;99.90;;;;;;5052772;28;20203;-73
2022/09/29 18:13:31;;;;;;;12.63;8.70;;;15.20;99.90;;;;;;5041606;28;20305;-72
2022/09/29 18:15:59;;;;;;;13.60;9.03;;;15.30;99.90;;;;;;5027487;28;20558;-71
2022/09/29 18:18:26;;;;;;;13.00;8.97;;;15.20;99.90;;;;;;5018717;28;20349;-71
2022/09/29 18:20:54;;;;;;;12.67;9.37;;;15.20;99.90;;;;;;5025088;28;20202;-73
2022/09/29 18:23:22;;;;;;;15.10;9.40;;;15.20;99.90;;;;;;5028911;28;20202;-70
2022/09/29 18:25:51;;;;;;;15.03;9.30;;;15.20;99.90;;;;;;5025407;28;20211;-72
2022/09/29 18:28:18;;;;;;;11.00;8.90;;;15.20;99.90;;;;;;5009474;28;20573;-74
2022/09/29 18:30:48;;;;;;;15.63;9.43;;;15.20;99.90;;;;;;5016200;28;20202;-69
2022/09/29 18:33:17;;;;;;;14.07;9.37;;;15.10;99.90;;;;;;5026108;28;20214;-75
2022/09/29 18:35:46;;;;;;;13.73;9.57;;;15.10;99.90;;;;;;5009357;28;20585;-72
2022/09/29 18:38:14;;;;;;;12.77;9.50;;;15.10;99.90;;;;;;5026586;28;20210;-72
2022/09/29 18:40:41;;;;;;;12.53;10.13;;;15.00;99.90;;;;;;5030610;28;20210;-73
2022/09/29 18:43:10;;;;;;;16.63;9.50;;;15.10;99.90;;;;;;5026219;28;20222;-73
2022/09/29 18:45:39;;;;;;;14.27;10.33;;;15.10;99.90;;;;;;5017073;28;20206;-71
2022/09/29 18:48:08;;;;;;;15.53;10.37;;;15.10;99.90;;;;;;5011698;28;20299;-73
2022/09/29 18:50:38;;;;;;;12.60;9.10;;;15.10;99.90;;;;;;5012413;28;20214;-71
2022/09/29 18:53:05;;;;;;;17.70;10.07;;;15.10;99.90;;;;;;5021208;28;20568;-72
2022/09/29 18:55:33;;;;;;;16.63;9.83;;;15.10;99.90;;;;;;5011480;28;20231;-72
2022/09/29 18:58:00;;;;;;;14.33;9.90;;;15.10;99.90;;;;;;5030949;28;20293;-75
2022/09/29 19:00:29;;;;;;;14.60;10.67;;;15.10;99.90;;;;;;5032085;28;20585;-71
2022/09/29 19:02:58;;;;;;;13.80;9.63;;;15.00;99.90;;;;;;5031443;28;20210;-71
2022/09/29 19:05:30;;;;;;;16.87;10.53;;;15.10;99.90;;;;;;5014548;28;20210;-74
2022/09/29 19:07:59;;;;;;;14.93;10.40;;;15.10;99.90;;;;;;5012400;28;20199;-71
2022/09/29 19:10:30;;;;;;;17.03;10.80;;;15.10;99.90;;;;;;5011820;28;20242;-72
2022/09/29 19:13:01;;;;;;;18.23;11.27;;;15.10;99.90;;;;;;5011916;28;20212;-71
2022/09/29 19:15:28;;;;;;;17.93;11.37;;;15.10;99.90;;;;;;5031624;28;20264;-72
2022/09/29 19:17:56;;;;;;;16.53;11.67;;;15.10;99.90;;;;;;5031323;28;20217;-72
2022/09/29 19:20:25;;;;;;;17.73;10.57;;;15.10;99.90;;;;;;5031475;28;20686;-70
2022/09/29 19:22:53;;;;;;;18.90;12.13;;;15.20;99.90;;;;;;5024008;28;20644;-73
2022/09/29 19:25:22;;;;;;;16.43;11.60;;;15.10;99.90;;;;;;5015308;28;20549;-72
2022/09/29 19:27:50;;;;;;;18.37;11.90;;;15.20;99.90;;;;;;5031486;28;20202;-70
2022/09/29 19:30:21;;;;;;;15.30;11.70;;;15.20;99.90;;;;;;5013997;28;20214;-70
2022/09/29 19:32:49;;;;;;;19.07;12.70;;;15.10;99.90;;;;;;5011375;28;20268;-71
2022/09/29 19:35:19;;;;;;;17.63;12.80;;;15.10;99.90;;;;;;5023636;28;20595;-72
2022/09/29 19:37:46;;;;;;;18.60;12.17;;;15.10;99.90;;;;;;5031679;28;20212;-72
2022/09/29 19:40:16;;;;;;;17.00;12.13;;;15.10;99.90;;;;;;5031142;28;20213;-72
2022/09/29 19:42:43;;;;;;;18.10;11.70;;;15.10;99.90;;;;;;5031655;28;20208;-72
2022/09/29 19:45:10;;;;;;;19.60;12.70;;;15.10;99.90;;;;;;5020974;28;20540;-72
2022/09/29 19:47:38;;;;;;;23.03;16.53;;;15.10;99.90;;;;;;5011629;28;20206;-72
2022/09/29 19:52:51;;;;;;;21.37;13.57;;;15.10;99.90;;;;;;5017800;28;20224;-70
2022/09/29 19:55:19;;;;;;;21.73;13.83;;;15.10;99.90;;;;;;5011041;28;20233;-72
2022/09/29 19:57:46;;;;;;;19.33;14.33;;;15.10;99.90;;;;;;5011424;28;20213;-73
2022/09/29 20:00:15;;;;;;;21.20;13.70;;;15.10;99.90;;;;;;5021917;28;20203;-76
2022/09/29 20:02:44;;;;;;;19.77;13.70;;;15.00;99.90;;;;;;5021151;28;21669;-74
2022/09/29 20:05:11;;;;;;;20.23;13.10;;;15.00;99.90;;;;;;5013944;28;20230;-74
2022/09/29 20:07:38;;;;;;;19.77;13.63;;;15.00;99.90;;;;;;5019529;28;20218;-74
2022/09/29 20:10:07;;;;;;;18.93;13.47;;;15.00;99.90;;;;;;5016182;28;20776;-74